createdAt,value
2019-01-31T00:02:58.287Z,87.13
2019-01-31T00:08:11.948Z,73.63
2019-01-31T00:13:25.223Z,82.07
2019-01-31T00:18:38.524Z,72.10
2019-01-31T00:24:04.571Z,67.60
2019-01-31T00:29:24.468Z,68.60
2019-01-31T00:35:06.688Z,66.53
2019-01-31T00:40:20.441Z,60.10
2019-01-31T00:45:30.916Z,65.63
2019-01-31T00:51:00.024Z,78.30
2019-01-31T00:56:07.848Z,68.17
2019-01-31T01:01:43.003Z,60.43
2019-01-31T01:06:56.553Z,47.80
2019-01-31T01:12:32.633Z,49.30
2019-01-31T01:17:40.361Z,52.97
2019-01-31T01:22:53.890Z,50.63
2019-01-31T01:28:04.602Z,46.73
2019-01-31T01:33:24.060Z,66.50
2019-01-31T01:38:34.538Z,57.13
2019-01-31T01:44:06.929Z,50.27
2019-01-31T01:49:17.161Z,55.90
2019-01-31T01:54:41.404Z,51.33
2019-01-31T02:00:04.067Z,53.57
2019-01-31T02:05:23.941Z,52.93
2019-01-31T02:10:37.309Z,52.03
2019-01-31T02:15:50.962Z,56.10
2019-01-31T02:21:14.034Z,65.37
2019-01-31T02:26:24.611Z,94.67
2019-01-31T02:31:38.150Z,66.50
2019-01-31T02:36:54.576Z,75.40
2019-01-31T02:42:31.439Z,68.07
2019-01-31T02:47:57.517Z,72.80
2019-01-31T02:53:22.020Z,79.73
2019-01-31T02:58:52.468Z,69.97
2019-01-31T03:04:29.258Z,75.07
2019-01-31T03:09:55.025Z,63.33
2019-01-31T03:14:58.303Z,56.73
2019-01-31T03:20:06.221Z,59.20
2019-01-31T03:25:22.949Z,64.20
2019-01-31T03:30:47.363Z,69.00
2019-01-31T03:36:04.174Z,44.37
2019-01-31T03:41:32.775Z,44.17
2019-01-31T03:46:55.542Z,46.23
2019-01-31T03:52:08.869Z,45.83
2019-01-31T03:57:16.700Z,55.70
2019-01-31T04:02:30.661Z,50.60
2019-01-31T04:07:36.330Z,58.20
2019-01-31T04:12:41.069Z,102.33
2019-01-31T04:17:45.810Z,54.03
2019-01-31T04:22:50.779Z,74.80
2019-01-31T04:27:55.399Z,84.83
2019-01-31T04:33:00.141Z,56.50
2019-01-31T04:38:04.988Z,55.93
2019-01-31T04:43:09.619Z,105.50
2019-01-31T04:48:14.371Z,82.30
2019-01-31T04:53:18.999Z,98.53
2019-01-31T04:58:23.647Z,76.23
2019-01-31T05:03:28.599Z,71.57
2019-01-31T05:08:34.452Z,57.87
2019-01-31T05:13:39.415Z,27.97
2019-01-31T05:18:44.053Z,20.93
2019-01-31T05:23:48.901Z,20.57
2019-01-31T05:28:53.641Z,22.33
2019-01-31T05:33:58.488Z,32.30
2019-01-31T05:39:04.355Z,60.63
2019-01-31T05:44:09.110Z,67.87
2019-01-31T05:49:13.950Z,72.60
2019-01-31T05:54:18.684Z,69.37
2019-01-31T05:59:23.535Z,71.17
2019-01-31T06:04:28.176Z,91.57
2019-01-31T06:09:32.810Z,112.23
2019-01-31T06:14:42.577Z,70.97
2019-01-31T06:19:51.904Z,80.30
2019-01-31T06:25:01.537Z,128.60
2019-01-31T06:30:14.097Z,123.17
2019-01-31T06:35:19.873Z,66.90
2019-01-31T06:40:24.615Z,128.80
2019-01-31T06:45:29.240Z,60.50
2019-01-31T06:50:33.898Z,125.83
2019-01-31T06:55:38.637Z,74.83
2019-01-31T07:00:43.481Z,117.80
2019-01-31T07:05:48.228Z,88.90
2019-01-31T07:10:52.860Z,57.23
2019-01-31T07:15:57.624Z,37.40
2019-01-31T07:21:02.353Z,38.70
2019-01-31T07:26:07.001Z,40.80
2019-01-31T07:31:11.738Z,36.87
2019-01-31T07:57:03.051Z,90.90
2019-01-31T08:02:07.800Z,115.23
2019-01-31T08:07:12.538Z,101.43
2019-01-31T08:12:17.302Z,119.80
2019-01-31T08:17:21.922Z,115.20
2019-01-31T09:29:54.542Z,55.50
2019-01-31T09:35:11.166Z,50.43
2019-01-31T09:40:37.545Z,28.17
2019-01-31T09:45:54.240Z,21.60
2019-01-31T09:51:17.006Z,24.67
2019-01-31T09:56:43.149Z,28.20
2019-01-31T10:02:10.417Z,26.30
2019-01-31T10:07:39.541Z,33.30
2019-01-31T10:12:50.125Z,23.07
2019-01-31T10:18:28.387Z,23.17
2019-01-31T10:24:06.677Z,23.00
2019-01-31T10:29:18.897Z,24.53
2019-01-31T10:34:32.747Z,51.73
2019-01-31T10:39:52.751Z,16.13
2019-01-31T10:45:09.575Z,15.47
2019-01-31T10:50:48.010Z,14.10
2019-01-31T10:56:01.865Z,20.20
2019-01-31T11:01:18.488Z,22.00
2019-01-31T11:06:52.207Z,29.53
2019-01-31T11:12:04.431Z,26.57
2019-01-31T11:17:12.348Z,20.40
2019-01-31T11:22:28.325Z,24.50
2019-01-31T11:27:56.935Z,28.77
2019-01-31T11:33:07.434Z,23.00
2019-01-31T11:38:27.434Z,29.30
2019-01-31T11:43:40.886Z,18.53
2019-01-31T11:48:54.427Z,13.33
2019-01-31T11:54:07.879Z,17.17
2019-01-31T11:59:12.620Z,12.00
2019-01-31T12:04:17.473Z,14.40
2019-01-31T12:09:22.217Z,29.00
2019-01-31T12:14:27.065Z,12.87
2019-01-31T12:19:31.595Z,12.43
2019-01-31T12:24:36.842Z,10.23
2019-01-31T12:29:41.421Z,9.87
2019-01-31T12:34:46.129Z,21.37
2019-01-31T12:39:52.166Z,13.30
2019-01-31T12:44:57.049Z,12.53
2019-01-31T12:50:01.793Z,10.10
2019-01-31T12:55:07.202Z,15.53
2019-01-31T13:24:53.810Z,11.07
2019-01-31T13:29:58.727Z,14.03
2019-01-31T13:35:03.703Z,31.63
2019-01-31T13:40:16.741Z,99.43
2019-01-31T13:45:27.890Z,45.53
2019-01-31T13:50:32.786Z,24.90
2019-01-31T13:55:37.674Z,25.07
2019-01-31T14:00:42.679Z,51.13
2019-01-31T14:05:47.434Z,56.77
2019-01-31T14:10:52.165Z,26.67
2019-01-31T14:15:57.121Z,33.33
2019-01-31T14:21:01.961Z,28.77
2019-01-31T14:26:06.706Z,55.07
2019-01-31T14:31:11.547Z,31.47
2019-01-31T14:36:16.394Z,12.37
2019-01-31T14:41:21.055Z,11.40
2019-01-31T14:46:25.939Z,21.07
2019-01-31T14:51:30.825Z,31.13
2019-01-31T14:56:35.576Z,32.53
2019-01-31T15:01:40.310Z,62.87
2019-01-31T15:06:45.917Z,20.10
2019-01-31T15:11:50.721Z,15.70
2019-01-31T15:16:56.080Z,60.13
2019-01-31T15:22:00.841Z,58.40
2019-01-31T15:27:05.566Z,36.33
2019-01-31T15:32:11.201Z,37.40
2019-01-31T15:37:17.102Z,125.97
2019-01-31T15:42:21.845Z,36.80
2019-01-31T15:47:26.587Z,35.37
2019-01-31T15:52:31.326Z,27.77
2019-01-31T15:57:35.959Z,33.37
2019-01-31T16:02:40.711Z,65.33
2019-01-31T16:07:45.557Z,40.57
2019-01-31T16:12:50.326Z,60.37
2019-01-31T16:17:55.147Z,48.53
2019-01-31T16:22:59.887Z,35.03
2019-01-31T16:28:04.941Z,46.30
2019-01-31T16:33:09.683Z,51.53
2019-01-31T16:38:14.332Z,43.77
2019-01-31T16:43:19.172Z,30.73
2019-01-31T16:48:24.329Z,44.53
2019-01-31T16:53:29.064Z,22.03
2019-01-31T16:58:34.022Z,24.83
2019-01-31T17:03:38.612Z,17.97
2019-01-31T17:08:43.496Z,11.67
2019-01-31T17:13:49.368Z,15.53
2019-01-31T17:18:54.980Z,32.83
2019-01-31T17:24:00.084Z,64.50
2019-01-31T17:29:05.043Z,119.33
2019-01-31T17:34:09.877Z,119.63
2019-01-31T17:39:15.026Z,46.10
2019-01-31T17:44:19.872Z,32.03
2019-01-31T17:49:25.744Z,29.67
2019-01-31T17:54:30.813Z,11.43
2019-01-31T17:59:36.150Z,12.60
2019-01-31T18:04:40.893Z,14.23
2019-01-31T18:09:47.096Z,29.47
2019-01-31T18:14:51.813Z,39.30
2019-01-31T18:19:57.418Z,28.63
2019-01-31T18:25:02.029Z,33.80
2019-01-31T18:30:09.830Z,48.67
2019-01-31T18:35:15.011Z,34.00
2019-01-31T18:40:24.848Z,33.80
2019-01-31T18:45:32.155Z,30.13
2019-01-31T18:50:39.416Z,18.63
2019-01-31T18:55:44.302Z,14.87
2019-01-31T19:00:49.456Z,23.83
2019-01-31T19:05:54.563Z,38.67
2019-01-31T19:11:01.251Z,32.70
2019-01-31T19:16:06.243Z,35.40
2019-01-31T19:21:11.103Z,33.47
2019-01-31T19:26:15.831Z,33.83
2019-01-31T19:31:21.084Z,24.03
2019-01-31T19:36:25.829Z,8.37
2019-01-31T19:41:30.528Z,5.97
2019-01-31T19:46:36.239Z,7.47
2019-01-31T19:51:40.965Z,10.90
2019-01-31T19:56:45.818Z,13.20
2019-01-31T20:01:51.591Z,10.77
2019-01-31T20:06:56.454Z,22.23
2019-01-31T20:12:01.280Z,23.03
2019-01-31T20:17:08.553Z,16.97
2019-01-31T20:22:13.426Z,22.13
2019-01-31T20:27:18.274Z,17.87
2019-01-31T20:32:23.124Z,15.30
2019-01-31T20:37:28.273Z,10.63
2019-01-31T20:42:33.014Z,12.57
2019-01-31T20:47:37.868Z,10.30
2019-01-31T20:52:43.007Z,11.13
2019-01-31T20:57:47.957Z,12.80
2019-01-31T21:02:53.946Z,15.30
2019-01-31T21:07:58.672Z,8.90
2019-01-31T21:13:03.398Z,12.07
2019-01-31T21:18:08.362Z,10.23
2019-01-31T21:23:14.235Z,19.90
2019-01-31T21:28:18.974Z,24.63
2019-01-31T21:33:23.734Z,30.80
2019-01-31T21:38:28.464Z,21.17
2019-01-31T21:43:34.737Z,23.13
2019-01-31T21:48:39.787Z,36.77
2019-01-31T21:53:44.637Z,30.97
2019-01-31T21:58:49.382Z,47.27
2019-01-31T22:03:54.225Z,47.03
2019-01-31T22:08:58.759Z,45.47
2019-01-31T22:14:03.400Z,48.23
2019-01-31T22:19:08.139Z,45.53
2019-01-31T22:24:12.886Z,36.67
2019-01-31T22:29:17.624Z,38.43
2019-01-31T22:34:22.375Z,41.37
2019-01-31T22:39:27.215Z,31.97
2019-01-31T22:44:32.067Z,32.17
2019-01-31T22:49:36.914Z,34.63
2019-01-31T22:54:41.712Z,36.90
2019-01-31T22:59:46.492Z,46.40
2019-01-31T23:04:53.387Z,52.63
2019-01-31T23:09:58.439Z,33.00
2019-01-31T23:15:03.185Z,27.80
2019-01-31T23:20:11.199Z,23.20
2019-01-31T23:25:16.141Z,19.93
2019-01-31T23:30:20.954Z,19.80
2019-01-31T23:35:25.754Z,24.37
2019-01-31T23:40:30.471Z,37.83
2019-01-31T23:45:35.120Z,27.73
2019-01-31T23:50:39.859Z,21.30
2019-01-31T23:55:44.498Z,18.87
